Time;durP1;ratioP1;P1;durP2;ratioP2;P2;SDS_P1;SDS_P2;PMS_P1;PMS_P2;Temp;Humidity;BMP_temperature;BMP_pressure;BME280_temperature;BME280_humidity;BME280_pressure;Samples;Min_cycle;Max_cycle;Signal;HPM_P1;HPM_P2
2021/12/21 00:00:51;;;;;;;10.02;4.78;;;-12.40;99.90;;;;;;5012575;28;20442;-80
2021/12/21 00:03:19;;;;;;;11.00;4.25;;;-12.40;99.90;;;;;;4994949;28;20053;-80
2021/12/21 00:05:47;;;;;;;10.00;5.00;;;-12.40;99.90;;;;;;5012782;28;20065;-80
2021/12/21 00:08:17;;;;;;;9.32;4.10;;;-12.40;99.90;;;;;;5013023;28;20045;-79
2021/12/21 00:10:47;;;;;;;13.05;4.65;;;-12.40;99.90;;;;;;5010958;28;20054;-79
2021/12/21 00:13:26;;;;;;;8.75;3.35;;;-12.40;99.90;;;;;;5012654;28;20053;-79
2021/12/21 00:16:00;;;;;;;7.10;3.45;;;-12.40;99.90;;;;;;5013103;28;20052;-77
2021/12/21 00:18:35;;;;;;;8.48;3.80;;;-12.40;99.90;;;;;;5012056;28;20060;-78
2021/12/21 00:21:10;;;;;;;5.50;3.42;;;-12.40;99.90;;;;;;4995075;28;20419;-78
2021/12/21 00:23:42;;;;;;;8.10;4.57;;;-12.50;99.90;;;;;;5012597;28;20057;-79
2021/12/21 00:26:12;;;;;;;14.63;3.90;;;-12.40;99.90;;;;;;5012848;28;20061;-79
2021/12/21 00:28:51;;;;;;;4.28;2.80;;;-12.50;99.90;;;;;;5010571;28;20058;-79
2021/12/21 00:31:20;;;;;;;4.72;2.85;;;-12.50;99.90;;;;;;5007436;28;20108;-80
2021/12/21 00:33:48;;;;;;;8.52;3.40;;;-12.50;99.90;;;;;;5009676;28;20528;-78
2021/12/21 00:36:18;;;;;;;5.57;2.97;;;-12.50;99.90;;;;;;4996068;28;20600;-78
2021/12/21 00:38:49;;;;;;;11.20;3.95;;;-12.50;99.90;;;;;;5011838;28;20041;-79
2021/12/21 00:41:17;;;;;;;6.72;3.83;;;-12.50;99.90;;;;;;5012135;28;20054;-78
2021/12/21 00:43:45;;;;;;;5.78;3.17;;;-12.50;99.90;;;;;;5008953;28;20068;-79
2021/12/21 00:46:13;;;;;;;6.45;3.13;;;-12.50;99.90;;;;;;5011203;28;20510;-78
2021/12/21 00:48:48;;;;;;;5.97;2.95;;;-12.50;99.90;;;;;;5000309;28;20046;-78
2021/12/21 00:51:18;;;;;;;7.28;3.47;;;-12.50;99.90;;;;;;5026895;28;20050;-79
2021/12/21 00:53:47;;;;;;;7.88;3.30;;;-12.50;99.90;;;;;;5010889;28;20128;-78
2021/12/21 00:56:15;;;;;;;6.47;3.15;;;-12.50;99.90;;;;;;5011230;28;20049;-78
2021/12/21 00:58:43;;;;;;;8.35;2.80;;;-12.40;99.90;;;;;;5012208;28;20107;-75
2021/12/21 01:01:11;;;;;;;4.57;2.88;;;-12.40;99.90;;;;;;5012156;28;20053;-76
2021/12/21 01:03:45;;;;;;;7.72;4.18;;;-12.50;99.90;;;;;;4994086;28;20430;-75
2021/12/21 01:06:19;;;;;;;5.15;3.97;;;-12.50;99.90;;;;;;5011116;28;20053;-74
2021/12/21 01:09:06;;;;;;;5.05;2.70;;;-12.50;99.90;;;;;;5011495;28;20049;-78
2021/12/21 01:11:37;;;;;;;8.07;3.65;;;-12.50;99.90;;;;;;5000127;28;20152;-78
2021/12/21 01:14:28;;;;;;;7.43;3.42;;;-12.50;99.90;;;;;;5011245;28;20050;-79
2021/12/21 01:17:04;;;;;;;3.75;2.60;;;-12.50;99.90;;;;;;5011707;28;20048;-78
2021/12/21 01:19:37;;;;;;;6.85;3.35;;;-12.60;99.90;;;;;;5000164;28;20085;-78
2021/12/21 01:22:13;;;;;;;5.93;2.80;;;-12.60;99.90;;;;;;4976751;28;20049;-77
2021/12/21 01:24:58;;;;;;;6.70;3.10;;;-12.60;99.90;;;;;;4994131;28;20517;-79
2021/12/21 01:27:36;;;;;;;6.63;3.10;;;-12.60;99.90;;;;;;5000063;28;20077;-77
2021/12/21 01:30:11;;;;;;;12.52;3.25;;;-12.60;99.90;;;;;;5012082;28;20433;-77
2021/12/21 01:32:56;;;;;;;10.07;3.47;;;-12.60;99.90;;;;;;5011038;28;20058;-78
2021/12/21 01:35:30;;;;;;;6.82;3.08;;;-12.60;99.90;;;;;;4996287;28;20097;-78
2021/12/21 01:38:02;;;;;;;4.20;2.80;;;-12.60;99.90;;;;;;4993530;28;20336;-78
2021/12/21 01:40:41;;;;;;;7.82;3.30;;;-12.60;99.90;;;;;;5009654;28;20050;-78
2021/12/21 01:43:20;;;;;;;8.13;3.53;;;-12.60;99.90;;;;;;5010915;28;20068;-78
2021/12/21 01:51:19;;;;;;;4.72;2.88;;;-12.60;99.90;;;;;;4974793;28;20091;-75
2021/12/21 01:53:49;;;;;;;10.77;3.75;;;-12.70;99.90;;;;;;5007337;28;20485;-75
2021/12/21 01:56:19;;;;;;;10.35;3.45;;;-12.70;99.90;;;;;;5010948;28;20061;-75
2021/12/21 01:58:46;;;;;;;8.40;3.45;;;-12.60;99.90;;;;;;5009639;28;20100;-75
2021/12/21 02:01:26;;;;;;;11.82;3.42;;;-12.70;99.90;;;;;;5001149;28;20064;-75
2021/12/21 02:03:54;;;;;;;11.23;3.38;;;-12.70;99.90;;;;;;4990368;28;20046;-75
2021/12/21 02:06:25;;;;;;;7.78;3.22;;;-12.70;99.90;;;;;;5000048;28;20081;-75
2021/12/21 02:08:53;;;;;;;8.18;3.17;;;-12.70;99.90;;;;;;4997840;28;20056;-75
2021/12/21 02:11:23;;;;;;;7.90;3.60;;;-12.70;99.90;;;;;;5011146;28;20465;-76
2021/12/21 02:13:52;;;;;;;11.23;3.03;;;-12.70;99.90;;;;;;4996501;28;20048;-75
2021/12/21 02:16:27;;;;;;;4.68;2.60;;;-12.70;99.90;;;;;;5008083;28;20046;-75
2021/12/21 02:19:00;;;;;;;5.65;3.15;;;-12.60;99.90;;;;;;5011154;28;20049;-75
2021/12/21 02:21:33;;;;;;;7.97;2.83;;;-12.60;99.90;;;;;;5002664;28;20042;-76
2021/12/21 02:24:07;;;;;;;6.07;3.10;;;-12.60;99.90;;;;;;5010566;28;20137;-75
2021/12/21 02:26:46;;;;;;;6.97;2.72;;;-12.60;99.90;;;;;;4992021;28;20510;-74
2021/12/21 02:29:17;;;;;;;5.65;2.75;;;-12.60;99.90;;;;;;5010295;28;20065;-75
2021/12/21 02:31:48;;;;;;;5.47;2.50;;;-12.60;99.90;;;;;;5009228;28;20077;-75
2021/12/21 02:34:18;;;;;;;7.82;2.65;;;-12.50;99.90;;;;;;5023507;28;20057;-75
2021/12/21 02:36:53;;;;;;;6.10;3.08;;;-12.50;99.90;;;;;;5010713;28;20115;-74
2021/12/21 02:39:21;;;;;;;7.63;3.50;;;-12.50;99.90;;;;;;5010007;28;20046;-75
2021/12/21 02:41:49;;;;;;;4.35;2.08;;;-12.50;99.90;;;;;;4993403;28;20049;-75
2021/12/21 02:44:18;;;;;;;4.43;2.17;;;-12.50;99.90;;;;;;5009311;28;20042;-75
2021/12/21 02:46:46;;;;;;;9.05;2.42;;;-12.40;99.90;;;;;;5010076;28;20048;-75
2021/12/21 02:49:15;;;;;;;7.60;2.40;;;-12.40;99.90;;;;;;5025499;28;20128;-76
2021/12/21 02:51:48;;;;;;;7.88;2.67;;;-12.30;99.90;;;;;;5019697;28;20435;-74
2021/12/21 02:54:17;;;;;;;6.32;2.08;;;-12.20;99.90;;;;;;5008333;28;20050;-76
2021/12/21 02:56:48;;;;;;;3.60;2.20;;;-12.20;99.90;;;;;;5009918;28;20038;-76
2021/12/21 02:59:15;;;;;;;2.95;2.03;;;-12.30;99.90;;;;;;4992891;28;20053;-76
2021/12/21 03:01:42;;;;;;;4.38;2.28;;;-12.30;99.90;;;;;;5009390;28;20076;-78
2021/12/21 03:04:13;;;;;;;6.05;2.53;;;-12.30;99.90;;;;;;5010426;28;20050;-77
2021/12/21 03:09:38;;;;;;;5.90;2.67;;;-12.30;99.90;;;;;;5008816;28;20068;-75
2021/12/21 03:12:13;;;;;;;;;;;-12.30;99.90;;;;;;5009791;28;20046;-75
2021/12/21 03:14:42;;;;;;;4.57;2.20;;;-12.40;99.90;;;;;;4993628;28;20402;-79
2021/12/21 03:17:10;;;;;;;3.67;2.08;;;-12.40;99.90;;;;;;5010150;28;20045;-78
2021/12/21 03:19:37;;;;;;;7.20;2.40;;;-12.30;99.90;;;;;;5008598;28;20465;-78
2021/12/21 03:22:07;;;;;;;5.07;2.65;;;-12.40;99.90;;;;;;5009730;28;20514;-78
2021/12/21 03:24:37;;;;;;;4.55;2.78;;;-12.40;99.90;;;;;;5009690;28;20053;-77
2021/12/21 03:27:05;;;;;;;5.55;1.95;;;-12.30;99.90;;;;;;5000960;28;20514;-78
2021/12/21 03:29:34;;;;;;;3.55;2.40;;;-12.40;99.90;;;;;;5008300;28;20568;-77
2021/12/21 03:32:02;;;;;;;11.88;2.53;;;-12.30;99.90;;;;;;4977713;28;20061;-78
2021/12/21 03:34:31;;;;;;;5.80;2.53;;;-12.30;99.90;;;;;;4992079;28;20058;-78
2021/12/21 03:36:59;;;;;;;3.15;2.25;;;-12.30;99.90;;;;;;5008649;28;20425;-78
2021/12/21 03:39:26;;;;;;;4.25;2.45;;;-12.40;99.90;;;;;;4996731;28;20077;-78
2021/12/21 03:41:58;;;;;;;7.38;2.72;;;-12.40;99.90;;;;;;5009826;28;20339;-78
2021/12/21 03:44:27;;;;;;;5.43;2.47;;;-12.40;99.90;;;;;;4992914;28;20101;-77
2021/12/21 03:46:56;;;;;;;5.75;2.28;;;-12.40;99.90;;;;;;4994988;28;20044;-77
2021/12/21 03:52:31;;;;;;;4.45;1.98;;;-12.40;99.90;;;;;;5069835;27;20398;-78
2021/12/21 03:55:02;;;;;;;7.63;2.85;;;-12.40;99.90;;;;;;5049069;28;20156;-77
2021/12/21 03:57:31;;;;;;;6.10;2.00;;;-12.40;99.90;;;;;;5036976;28;20140;-77
2021/12/21 03:59:58;;;;;;;2.65;1.92;;;-12.40;99.90;;;;;;5047863;28;20049;-78
2021/12/21 04:02:29;;;;;;;4.72;2.10;;;-12.40;99.90;;;;;;5048461;28;20049;-78
2021/12/21 04:04:58;;;;;;;4.50;1.80;;;-12.40;99.90;;;;;;5047876;28;20053;-77
2021/12/21 04:07:27;;;;;;;4.03;1.65;;;-12.40;99.90;;;;;;5052868;28;20147;-78
2021/12/21 04:09:57;;;;;;;5.93;1.80;;;-12.40;99.90;;;;;;5065611;28;20095;-82
2021/12/21 04:12:24;;;;;;;4.22;2.55;;;-12.40;99.90;;;;;;5049985;28;20048;-81
2021/12/21 04:14:52;;;;;;;7.97;2.65;;;-12.50;99.90;;;;;;5063295;28;20094;-82
2021/12/21 04:17:22;;;;;;;4.03;2.00;;;-12.40;99.90;;;;;;5055168;28;20041;-80
2021/12/21 04:19:51;;;;;;;3.13;2.28;;;-12.40;99.90;;;;;;5058201;28;20041;-79
2021/12/21 04:22:20;;;;;;;5.32;2.60;;;-12.40;99.90;;;;;;5059205;28;20068;-79
2021/12/21 04:24:48;;;;;;;7.95;2.63;;;-12.40;99.90;;;;;;5045374;28;20518;-79
2021/12/21 04:27:18;;;;;;;5.82;2.25;;;-12.40;99.90;;;;;;5047187;28;20057;-80
2021/12/21 04:29:46;;;;;;;4.00;2.58;;;-12.40;99.90;;;;;;5047898;28;20063;-80
2021/12/21 04:32:13;;;;;;;7.97;2.08;;;-12.40;99.90;;;;;;5056657;28;20045;-80
2021/12/21 04:34:42;;;;;;;4.20;2.60;;;-12.40;99.90;;;;;;5050260;28;20045;-80
2021/12/21 04:37:12;;;;;;;2.97;1.90;;;-12.40;99.90;;;;;;5079838;28;20082;-81
2021/12/21 04:39:44;;;;;;;4.35;2.35;;;-12.40;99.90;;;;;;5067949;28;20045;-84
2021/12/21 04:42:14;;;;;;;5.00;2.47;;;-12.40;99.90;;;;;;5055716;28;20068;-80
2021/12/21 04:44:43;;;;;;;6.30;2.50;;;-12.40;99.90;;;;;;5028597;28;20140;-81
2021/12/21 04:47:18;;;;;;;3.75;2.28;;;-12.40;99.90;;;;;;5047127;28;20041;-80
2021/12/21 04:49:46;;;;;;;5.70;2.28;;;-12.40;99.90;;;;;;5063842;28;20045;-80
2021/12/21 04:52:16;;;;;;;5.95;2.88;;;-12.40;99.90;;;;;;5063768;28;20049;-81
2021/12/21 04:54:49;;;;;;;3.15;2.30;;;-12.40;99.90;;;;;;5067045;28;20118;-80
2021/12/21 04:57:17;;;;;;;4.05;2.08;;;-12.40;99.90;;;;;;5066589;28;20525;-79
2021/12/21 04:59:45;;;;;;;3.10;2.30;;;-12.40;99.90;;;;;;5064501;28;20066;-80
2021/12/21 05:02:13;;;;;;;7.63;3.10;;;-12.30;99.90;;;;;;5059214;28;20053;-78
2021/12/21 05:04:40;;;;;;;12.13;2.95;;;-12.40;99.90;;;;;;5043180;28;20049;-77
2021/12/21 05:07:08;;;;;;;3.78;2.33;;;-12.30;99.90;;;;;;5032860;28;20065;-79
2021/12/21 05:09:41;;;;;;;4.70;2.70;;;-12.30;99.90;;;;;;5042525;28;20041;-78
2021/12/21 05:12:11;;;;;;;5.60;2.92;;;-12.40;99.90;;;;;;5021180;28;20054;-78
2021/12/21 05:14:39;;;;;;;4.55;2.92;;;-12.40;99.90;;;;;;5034175;28;20073;-81
2021/12/21 05:17:08;;;;;;;5.40;1.83;;;-12.40;99.90;;;;;;5033670;28;20041;-81
2021/12/21 05:19:35;;;;;;;4.10;3.10;;;-12.40;99.90;;;;;;5034566;28;20049;-81
2021/12/21 05:22:05;;;;;;;5.65;2.53;;;-12.40;99.90;;;;;;5032252;28;20057;-81
2021/12/21 05:24:33;;;;;;;5.03;2.67;;;-12.40;99.90;;;;;;5038312;28;20499;-81
2021/12/21 05:27:00;;;;;;;4.63;2.97;;;-12.50;99.90;;;;;;5051697;28;20068;-81
2021/12/21 05:29:31;;;;;;;4.22;2.40;;;-12.50;99.90;;;;;;5052430;28;20525;-81
2021/12/21 05:31:59;;;;;;;3.08;2.42;;;-12.50;99.90;;;;;;5052016;28;20059;-80
2021/12/21 05:34:31;;;;;;;8.43;3.10;;;-12.50;99.90;;;;;;5053321;28;20065;-81
2021/12/21 05:37:00;;;;;;;8.38;2.20;;;-12.50;99.90;;;;;;5050326;28;20064;-81
2021/12/21 05:39:38;;;;;;;13.30;2.50;;;-12.50;99.90;;;;;;5068266;28;20444;-81
2021/12/21 05:42:07;;;;;;;6.38;2.65;;;-12.50;99.90;;;;;;5065098;28;20041;-82
2021/12/21 05:44:40;;;;;;;4.38;2.28;;;-12.50;99.90;;;;;;5032071;28;20045;-82
2021/12/21 05:47:10;;;;;;;5.60;2.70;;;-12.50;99.90;;;;;;5043569;28;20041;-82
2021/12/21 05:49:41;;;;;;;12.68;5.22;;;-12.50;99.90;;;;;;5042373;28;20122;-82
2021/12/21 05:52:09;;;;;;;5.97;2.33;;;-12.50;99.90;;;;;;5038879;28;20064;-83
2021/12/21 05:54:37;;;;;;;6.10;2.90;;;-12.50;99.90;;;;;;5039577;28;20103;-81
2021/12/21 05:57:06;;;;;;;6.20;3.47;;;-12.50;99.90;;;;;;5034117;28;20111;-81
2021/12/21 05:59:36;;;;;;;7.82;3.03;;;-12.50;99.90;;;;;;5032608;28;20349;-83
2021/12/21 06:02:05;;;;;;;5.95;3.17;;;-12.50;99.90;;;;;;5014531;28;20080;-83
2021/12/21 06:04:33;;;;;;;5.35;4.05;;;-12.40;99.90;;;;;;5047298;28;20527;-84
2021/12/21 06:07:05;;;;;;;8.93;3.83;;;-12.40;99.90;;;;;;5052884;28;20077;-82
2021/12/21 06:09:33;;;;;;;7.22;3.47;;;-12.30;99.90;;;;;;5052348;28;20416;-83
2021/12/21 06:12:09;;;;;;;11.82;3.78;;;-12.30;99.90;;;;;;5037716;28;20044;-84
2021/12/21 06:14:55;;;;;;;6.47;3.90;;;-12.20;99.90;;;;;;5040134;28;20041;-83
2021/12/21 06:23:15;;;;;;;6.68;2.38;;;-12.20;99.90;;;;;;5025133;28;20077;-89
2021/12/21 06:25:53;;;;;;;6.63;2.80;;;-12.10;99.90;;;;;;5046725;28;20544;-88
2021/12/21 06:28:21;;;;;;;6.50;2.63;;;-12.10;99.90;;;;;;5039439;28;20049;-89
2021/12/21 06:30:51;;;;;;;4.28;2.45;;;-12.00;99.90;;;;;;5040690;28;20532;-92
2021/12/21 06:33:22;;;;;;;11.68;3.28;;;-11.90;99.90;;;;;;5038851;28;20041;-90
2021/12/21 06:35:50;;;;;;;3.22;2.65;;;-11.80;99.90;;;;;;5040948;28;20140;-82
2021/12/21 06:38:19;;;;;;;6.68;2.72;;;-11.60;99.90;;;;;;5037896;28;20037;-81
2021/12/21 06:40:47;;;;;;;4.93;2.80;;;-11.50;99.90;;;;;;5045264;28;20048;-80
2021/12/21 06:43:16;;;;;;;12.20;2.88;;;-11.40;99.90;;;;;;5029397;28;20053;-82
2021/12/21 06:45:50;;;;;;;9.10;4.47;;;-11.30;99.90;;;;;;5031105;28;20065;-81
2021/12/21 06:53:58;;;;;;;5.85;3.85;;;-11.20;99.90;;;;;;5032714;28;20122;-82
2021/12/21 06:56:29;;;;;;;10.30;3.22;;;-11.20;99.90;;;;;;5040283;28;20045;-81
2021/12/21 06:59:04;;;;;;;12.52;3.83;;;-11.10;99.90;;;;;;5041246;28;20056;-81
2021/12/21 07:01:37;;;;;;;5.18;3.08;;;-11.10;99.90;;;;;;5039109;28;20131;-80
2021/12/21 07:04:06;;;;;;;;;;;-11.10;99.90;;;;;;5033034;28;20049;-83
2021/12/21 07:06:37;;;;;;;6.18;2.80;;;-11.10;99.90;;;;;;5036719;28;19928;-84
2021/12/21 07:09:14;;;;;;;9.30;2.30;;;-11.00;99.90;;;;;;5049597;28;20050;-83
2021/12/21 07:11:46;;;;;;;4.55;2.63;;;-11.00;99.90;;;;;;4980636;28;20057;-83
2021/12/21 07:19:47;;;;;;;5.57;3.17;;;-11.10;99.90;;;;;;5030646;28;20049;-83
2021/12/21 07:22:15;;;;;;;6.68;3.67;;;-11.10;99.90;;;;;;5030332;28;20521;-84
2021/12/21 07:24:44;;;;;;;6.70;3.05;;;-11.10;99.90;;;;;;5030009;28;20045;-83
2021/12/21 07:27:11;;;;;;;9.82;3.22;;;-11.20;99.90;;;;;;5029208;28;20041;-82
2021/12/21 07:29:39;;;;;;;9.05;4.22;;;-11.20;99.90;;;;;;5045731;28;20079;-81
2021/12/21 07:32:07;;;;;;;7.85;4.35;;;-11.10;99.90;;;;;;5029268;28;20053;-83
2021/12/21 07:34:36;;;;;;;9.77;3.83;;;-11.00;99.90;;;;;;5030316;28;20053;-83
2021/12/21 07:37:06;;;;;;;10.43;4.68;;;-11.00;99.90;;;;;;5029188;28;20091;-80
2021/12/21 07:39:34;;;;;;;9.48;4.00;;;-10.90;99.90;;;;;;5029609;28;20045;-80
2021/12/21 07:42:09;;;;;;;11.07;3.45;;;-10.80;99.90;;;;;;5024972;28;20056;-82
2021/12/21 07:44:38;;;;;;;7.60;4.50;;;-10.80;99.90;;;;;;5043122;28;20077;-81
2021/12/21 07:47:06;;;;;;;11.15;4.68;;;-10.80;99.90;;;;;;5028478;28;20049;-80
2021/12/21 07:49:35;;;;;;;9.63;5.32;;;-10.80;99.90;;;;;;5030168;28;20579;-82
2021/12/21 07:52:03;;;;;;;10.15;4.45;;;-10.70;99.90;;;;;;5028962;28;20126;-80
2021/12/21 07:54:31;;;;;;;9.20;5.38;;;-10.70;99.90;;;;;;5029936;28;20054;-80
2021/12/21 07:56:59;;;;;;;7.05;3.75;;;-10.60;99.90;;;;;;5029498;28;20038;-79
2021/12/21 07:59:28;;;;;;;9.13;4.38;;;-10.50;99.90;;;;;;5029453;28;20477;-81
2021/12/21 08:01:57;;;;;;;5.28;3.63;;;-10.50;99.90;;;;;;5024550;28;20069;-80
2021/12/21 08:04:28;;;;;;;9.32;4.47;;;-10.40;99.90;;;;;;5028460;28;20119;-81
2021/12/21 08:07:06;;;;;;;9.52;4.10;;;-10.40;99.90;;;;;;5029591;28;20053;-81
2021/12/21 08:09:47;;;;;;;13.35;4.18;;;-10.30;99.90;;;;;;5030555;28;20421;-80
2021/12/21 08:12:17;;;;;;;8.57;4.07;;;-10.30;99.90;;;;;;5030293;28;20060;-81
2021/12/21 08:14:50;;;;;;;11.60;4.88;;;-10.20;99.90;;;;;;5027893;28;20049;-81
2021/12/21 08:17:19;;;;;;;12.25;4.82;;;-10.20;99.90;;;;;;5010361;28;20064;-80
2021/12/21 08:19:47;;;;;;;12.00;5.03;;;-10.20;99.90;;;;;;5024988;28;20146;-80
2021/12/21 08:22:17;;;;;;;9.15;4.55;;;-10.20;99.90;;;;;;5025473;28;20462;-81
2021/12/21 08:24:45;;;;;;;12.40;4.22;;;-10.20;99.90;;;;;;5017544;28;20057;-80
2021/12/21 08:27:13;;;;;;;9.48;4.78;;;-10.10;99.90;;;;;;5030017;28;20133;-81
2021/12/21 08:29:41;;;;;;;10.57;4.63;;;-10.10;99.90;;;;;;5029599;28;20509;-82
2021/12/21 08:32:11;;;;;;;12.85;4.88;;;-10.00;99.90;;;;;;5028895;28;20406;-80
2021/12/21 08:34:39;;;;;;;10.75;3.95;;;-9.90;99.90;;;;;;5027735;28;20053;-80
2021/12/21 08:37:06;;;;;;;13.70;5.15;;;-9.80;99.90;;;;;;5029189;28;20077;-83
2021/12/21 08:39:39;;;;;;;11.57;4.60;;;-9.60;99.90;;;;;;5048778;28;20437;-80
2021/12/21 08:42:12;;;;;;;10.35;4.88;;;-9.50;99.90;;;;;;5039500;28;20502;-85
2021/12/21 08:44:39;;;;;;;;;;;-9.40;99.90;;;;;;5031648;28;20045;-91
2021/12/21 08:47:09;;;;;;;13.80;4.10;;;-9.30;99.90;;;;;;5034053;28;19925;-91
2021/12/21 08:49:36;;;;;;;11.10;4.20;;;-9.20;99.90;;;;;;5033754;28;20052;-87
2021/12/21 08:52:05;;;;;;;7.05;4.38;;;-9.10;99.90;;;;;;5032992;28;20042;-86
2021/12/21 08:54:33;;;;;;;8.00;4.05;;;-9.00;99.90;;;;;;5034190;28;20068;-90
2021/12/21 08:57:00;;;;;;;15.88;4.97;;;-8.90;99.90;;;;;;5050294;28;20049;-89
2021/12/21 08:59:28;;;;;;;15.77;5.35;;;-8.80;99.90;;;;;;5034550;28;20506;-90
2021/12/21 09:01:55;;;;;;;8.85;4.75;;;-8.80;99.90;;;;;;5032801;28;20049;-88
2021/12/21 09:04:27;;;;;;;13.50;5.85;;;-8.80;99.90;;;;;;5034153;28;20107;-90
2021/12/21 09:06:55;;;;;;;14.32;5.80;;;-8.80;99.90;;;;;;5031991;28;20056;-89
2021/12/21 09:09:26;;;;;;;12.98;6.25;;;-8.90;99.90;;;;;;5036047;28;20049;-91
2021/12/21 09:11:57;;;;;;;9.25;5.45;;;-9.00;99.90;;;;;;5035069;28;20056;-89
2021/12/21 09:14:27;;;;;;;20.08;6.30;;;-9.20;99.90;;;;;;5032625;28;20050;-88
2021/12/21 09:16:57;;;;;;;11.20;6.25;;;-9.40;99.90;;;;;;5036424;28;20141;-90
2021/12/21 09:19:32;;;;;;;12.73;5.50;;;-9.50;99.90;;;;;;5035897;28;20083;-90
2021/12/21 09:21:59;;;;;;;12.43;5.25;;;-9.60;99.90;;;;;;5036074;28;20053;-91
2021/12/21 09:24:34;;;;;;;10.95;4.95;;;-9.70;99.90;;;;;;5034541;28;20072;-89
2021/12/21 09:27:09;;;;;;;9.38;5.25;;;-9.70;99.90;;;;;;5053939;28;20053;-90
2021/12/21 09:29:40;;;;;;;14.70;5.97;;;-9.70;99.90;;;;;;5038428;28;20057;-93
2021/12/21 09:32:13;;;;;;;13.82;5.38;;;-9.80;99.90;;;;;;5057652;28;20064;-90
2021/12/21 09:34:44;;;;;;;8.88;4.30;;;-9.80;99.90;;;;;;5035741;28;20457;-91
2021/12/21 09:37:17;;;;;;;9.10;4.20;;;-9.80;99.90;;;;;;5017838;28;20054;-90
2021/12/21 09:39:46;;;;;;;7.80;4.45;;;-9.80;99.90;;;;;;5017271;28;20045;-89
2021/12/21 09:42:18;;;;;;;14.82;3.97;;;-9.90;99.90;;;;;;5034750;28;20041;-91
2021/12/21 09:44:47;;;;;;;7.57;4.18;;;-9.80;99.90;;;;;;5053008;28;20076;-89
2021/12/21 09:47:17;;;;;;;8.80;3.95;;;-9.80;99.90;;;;;;5040804;28;20053;-91
2021/12/21 09:49:49;;;;;;;11.63;4.78;;;-9.80;99.90;;;;;;5034653;28;20421;-92
2021/12/21 09:52:21;;;;;;;11.77;3.95;;;-9.80;99.90;;;;;;5049547;28;20469;-91
2021/12/21 09:54:51;;;;;;;7.95;4.32;;;-9.80;99.90;;;;;;5032539;28;20057;-94
2021/12/21 09:57:25;;;;;;;13.93;5.43;;;-9.80;99.90;;;;;;5038933;28;20045;-93
2021/12/21 09:59:54;;;;;;;9.82;5.40;;;-9.80;99.90;;;;;;5038868;28;20111;-91
2021/12/21 10:02:27;;;;;;;17.55;5.47;;;-9.90;99.90;;;;;;5038934;28;20041;-91
2021/12/21 10:04:59;;;;;;;;;;;-10.00;99.90;;;;;;5036814;28;20057;-93
2021/12/21 10:07:28;;;;;;;11.88;5.10;;;-10.00;99.90;;;;;;5037310;28;19925;-94
2021/12/21 10:10:07;;;;;;;12.57;5.80;;;-10.10;99.90;;;;;;5032127;28;20517;-84
2021/12/21 10:12:42;;;;;;;9.93;3.90;;;-10.10;99.90;;;;;;5030036;28;20119;-82
2021/12/21 10:15:12;;;;;;;13.85;5.50;;;-10.00;99.90;;;;;;5030406;28;20041;-85
2021/12/21 10:17:50;;;;;;;11.23;5.25;;;-10.10;99.90;;;;;;5028841;28;20079;-85
2021/12/21 10:20:39;;;;;;;12.73;4.93;;;-10.00;99.90;;;;;;5025346;28;20057;-85
2021/12/21 10:23:17;;;;;;;11.20;4.60;;;-10.00;99.90;;;;;;5029776;28;20049;-83
2021/12/21 10:26:10;;;;;;;11.02;4.53;;;-9.90;99.90;;;;;;5026443;28;20056;-83
2021/12/21 10:28:44;;;;;;;15.20;4.90;;;-9.90;99.90;;;;;;5034692;28;20053;-91
2021/12/21 10:31:14;;;;;;;10.10;3.97;;;-9.90;99.90;;;;;;5034825;28;20417;-91
2021/12/21 10:33:46;;;;;;;15.13;5.22;;;-9.90;99.90;;;;;;5031433;28;20115;-90
2021/12/21 10:36:18;;;;;;;10.25;4.88;;;-9.90;99.90;;;;;;5035074;28;20049;-91
2021/12/21 10:38:52;;;;;;;15.07;5.32;;;-9.90;99.90;;;;;;5046266;28;20072;-91
2021/12/21 10:41:46;;;;;;;13.38;6.30;;;-9.90;99.90;;;;;;5049853;28;20057;-92
2021/12/21 10:44:22;;;;;;;9.05;5.22;;;-9.90;99.90;;;;;;5030673;28;20578;-87
2021/12/21 10:46:56;;;;;;;11.80;5.40;;;-9.80;99.90;;;;;;5030496;28;20056;-84
2021/12/21 10:49:31;;;;;;;9.98;4.20;;;-9.70;99.90;;;;;;5030588;28;20513;-83
2021/12/21 10:52:05;;;;;;;7.35;3.38;;;-9.50;99.90;;;;;;5010093;28;20061;-85
2021/12/21 10:54:35;;;;;;;7.00;3.72;;;-9.30;99.90;;;;;;5015879;28;20053;-84
2021/12/21 10:57:07;;;;;;;10.15;3.50;;;-9.00;99.90;;;;;;5031897;28;20053;-84
2021/12/21 10:59:37;;;;;;;7.75;4.03;;;-8.70;99.90;;;;;;5020298;28;20149;-84
2021/12/21 11:02:13;;;;;;;8.25;4.13;;;-8.60;99.90;;;;;;5028770;28;20058;-83
2021/12/21 11:04:48;;;;;;;8.52;4.63;;;-8.50;99.90;;;;;;5029419;28;20135;-82
2021/12/21 11:07:26;;;;;;;9.10;4.10;;;-8.50;99.90;;;;;;5030891;28;20088;-84
2021/12/21 11:10:01;;;;;;;10.18;4.22;;;-8.50;99.90;;;;;;5030692;28;20477;-83
2021/12/21 11:12:42;;;;;;;7.68;4.40;;;-8.60;99.90;;;;;;5045747;28;20052;-83
2021/12/21 11:15:13;;;;;;;12.75;4.38;;;-8.70;99.90;;;;;;5029042;28;20144;-84
2021/12/21 11:17:41;;;;;;;8.23;4.78;;;-8.80;99.90;;;;;;5030865;28;20136;-84
2021/12/21 11:20:14;;;;;;;12.98;4.18;;;-8.90;99.90;;;;;;5029378;28;20049;-82
2021/12/21 11:22:53;;;;;;;9.15;4.15;;;-9.00;99.90;;;;;;5028797;28;20060;-83
2021/12/21 11:25:22;;;;;;;5.90;3.13;;;-9.00;99.90;;;;;;5028213;28;20052;-84
2021/12/21 11:27:54;;;;;;;9.35;3.80;;;-9.00;99.90;;;;;;5012932;28;20480;-84
2021/12/21 11:30:26;;;;;;;7.00;3.72;;;-9.10;99.90;;;;;;5031705;28;20140;-90
2021/12/21 11:33:06;;;;;;;8.23;4.63;;;-9.10;99.90;;;;;;5032700;28;20103;-92
2021/12/21 11:38:25;;;;;;;7.10;3.70;;;-9.20;99.90;;;;;;5034056;28;20056;-90
2021/12/21 11:40:56;;;;;;;16.52;4.15;;;-9.20;99.90;;;;;;5045509;28;20046;-90
2021/12/21 11:43:34;;;;;;;12.68;5.10;;;-9.20;99.90;;;;;;5031716;28;20421;-86
2021/12/21 11:46:08;;;;;;;9.20;4.38;;;-9.30;99.90;;;;;;5027890;28;20052;-86
2021/12/21 11:48:50;;;;;;;8.73;4.32;;;-9.30;99.90;;;;;;5012311;28;20045;-79
2021/12/21 11:51:18;;;;;;;13.07;3.85;;;-9.40;99.90;;;;;;5037486;28;20399;-78
2021/12/21 11:53:48;;;;;;;12.55;5.25;;;-9.50;99.90;;;;;;5007740;28;20163;-77
2021/12/21 11:56:21;;;;;;;8.15;4.70;;;-9.50;99.90;;;;;;5016596;28;20064;-77
2021/12/21 11:58:52;;;;;;;9.32;4.88;;;-9.60;99.90;;;;;;5029288;28;20041;-79
2021/12/21 12:01:25;;;;;;;8.13;3.92;;;-9.60;99.90;;;;;;5027241;28;20051;-80
2021/12/21 12:04:08;;;;;;;13.55;5.40;;;-9.60;99.90;;;;;;5028874;28;20049;-78
2021/12/21 12:06:49;;;;;;;10.55;4.00;;;-9.60;99.90;;;;;;5044447;28;20148;-78
2021/12/21 12:09:27;;;;;;;11.93;4.22;;;-9.60;99.90;;;;;;5030060;28;20041;-78
2021/12/21 12:12:09;;;;;;;6.07;3.47;;;-9.60;99.90;;;;;;5028803;28;20064;-79
2021/12/21 12:14:37;;;;;;;9.02;3.60;;;-9.60;99.90;;;;;;5032346;28;20140;-76
2021/12/21 12:17:14;;;;;;;9.80;5.20;;;-9.60;99.90;;;;;;5048780;28;20520;-78
2021/12/21 12:19:44;;;;;;;9.38;5.03;;;-9.70;99.90;;;;;;5033626;28;20056;-78
2021/12/21 12:22:15;;;;;;;12.13;5.88;;;-9.60;99.90;;;;;;5033867;28;20048;-80
2021/12/21 12:24:47;;;;;;;13.55;5.32;;;-9.60;99.90;;;;;;5031545;28;20578;-79
2021/12/21 12:27:21;;;;;;;25.63;8.98;;;-9.70;99.90;;;;;;5034018;28;20080;-78
2021/12/21 12:29:51;;;;;;;14.80;6.18;;;-9.70;99.90;;;;;;5032597;28;20049;-77
2021/12/21 12:32:33;;;;;;;11.85;6.18;;;-9.70;99.90;;;;;;5031547;28;20045;-77
2021/12/21 12:35:08;;;;;;;12.90;5.13;;;-9.80;99.90;;;;;;5032523;28;20068;-77
2021/12/21 12:37:48;;;;;;;11.55;5.22;;;-9.80;99.90;;;;;;5035027;28;20049;-81
2021/12/21 12:40:20;;;;;;;12.18;5.15;;;-9.80;99.90;;;;;;5030306;28;20041;-78
2021/12/21 12:42:58;;;;;;;7.65;4.30;;;-9.90;99.90;;;;;;5033356;28;20054;-80
2021/12/21 12:45:35;;;;;;;9.63;4.13;;;-9.90;99.90;;;;;;5032765;28;20401;-80
2021/12/21 12:48:05;;;;;;;10.43;4.53;;;-9.90;99.90;;;;;;5031242;28;20053;-78
2021/12/21 12:50:42;;;;;;;7.13;4.55;;;-9.90;99.90;;;;;;5010724;28;20073;-77
2021/12/21 12:53:09;;;;;;;11.27;3.70;;;-10.00;99.90;;;;;;5014872;28;20120;-79
2021/12/21 12:55:42;;;;;;;10.70;4.68;;;-10.00;99.90;;;;;;5031241;28;20049;-81
2021/12/21 12:58:15;;;;;;;12.68;4.93;;;-10.00;99.90;;;;;;5031542;28;20068;-79
2021/12/21 13:00:45;;;;;;;11.07;4.97;;;-10.00;99.90;;;;;;5046039;28;20057;-81
2021/12/21 13:03:14;;;;;;;9.15;4.63;;;-10.00;99.90;;;;;;5031650;28;20091;-80
2021/12/21 13:05:52;;;;;;;15.98;5.22;;;-9.90;99.90;;;;;;5031489;28;20485;-81
2021/12/21 13:08:23;;;;;;;8.85;4.63;;;-9.80;99.90;;;;;;5030214;28;20532;-80
2021/12/21 13:10:55;;;;;;;10.20;4.88;;;-9.80;99.90;;;;;;5030544;28;20056;-79
2021/12/21 13:13:34;;;;;;;12.55;4.68;;;-9.70;99.90;;;;;;5030502;28;20049;-82
2021/12/21 13:16:07;;;;;;;10.18;4.38;;;-9.70;99.90;;;;;;5029590;28;20041;-82
2021/12/21 13:18:43;;;;;;;10.77;4.30;;;-9.70;99.90;;;;;;5021912;28;20077;-80
2021/12/21 13:21:24;;;;;;;11.93;4.55;;;-9.80;99.90;;;;;;5030543;28;20504;-80
2021/12/21 13:23:56;;;;;;;8.80;4.57;;;-9.80;99.90;;;;;;5014713;28;20049;-81
2021/12/21 13:26:36;;;;;;;6.45;3.10;;;-9.90;99.90;;;;;;5029916;28;20049;-79
2021/12/21 13:29:06;;;;;;;10.32;3.88;;;-10.00;99.90;;;;;;5031793;28;20056;-78
2021/12/21 13:31:35;;;;;;;7.88;3.42;;;-10.10;99.90;;;;;;5032759;28;20401;-85